Time;durP1;ratioP1;P1;durP2;ratioP2;P2;SDS_P1;SDS_P2;PMS_P1;PMS_P2;Temp;Humidity;BMP_temperature;BMP_pressure;BME280_temperature;BME280_humidity;BME280_pressure;Samples;Min_cycle;Max_cycle;Signal;HPM_P1;HPM_P2
2022/01/01 00:01:29;;;;;;;113.28;80.93;;;;;;;;;;4989156;28;20283;-59
2022/01/01 00:03:54;;;;;;;107.95;77.90;;;;;;;;;;4990257;28;20228;-59
2022/01/01 00:06:20;;;;;;;101.57;71.88;;;;;;;;;;4978001;28;20222;-59
2022/01/01 00:08:45;;;;;;;100.63;63.88;;;;;;;;;;4985688;28;20233;-59
2022/01/01 00:11:10;;;;;;;88.35;58.78;;;;;;;;;;4970373;28;20228;-59
2022/01/01 00:13:35;;;;;;;87.95;61.28;;;;;;;;;;4970227;28;20217;-59
2022/01/01 00:16:01;;;;;;;90.75;59.35;;;;;;;;;;4970711;28;20217;-60
2022/01/01 00:18:26;;;;;;;86.70;57.15;;;;;;;;;;4971055;28;20213;-59
2022/01/01 00:20:51;;;;;;;90.80;59.85;;;;;;;;;;4970160;28;20672;-59
2022/01/01 00:23:17;;;;;;;84.50;51.13;;;;;;;;;;4987481;28;20255;-59
2022/01/01 00:25:42;;;;;;;75.30;49.00;;;;;;;;;;4990392;28;20229;-59
2022/01/01 00:28:07;;;;;;;74.80;47.78;;;;;;;;;;4988972;28;20213;-59
2022/01/01 00:30:32;;;;;;;77.68;46.75;;;;;;;;;;4990501;28;20279;-59
2022/01/01 00:32:58;;;;;;;85.50;50.75;;;;;;;;;;4990452;28;20232;-59
2022/01/01 00:35:23;;;;;;;82.00;51.30;;;;;;;;;;4990532;28;20205;-59
2022/01/01 00:37:48;;;;;;;87.68;52.72;;;;;;;;;;5009267;28;20556;-59
2022/01/01 00:40:14;;;;;;;58.58;36.90;;;;;;;;;;4993522;28;20722;-59
2022/01/01 00:42:39;;;;;;;68.15;39.25;;;;;;;;;;4993238;28;20209;-59
2022/01/01 00:45:04;;;;;;;61.92;35.65;;;;;;;;;;4993391;28;20228;-59
2022/01/01 00:47:30;;;;;;;62.20;35.92;;;;;;;;;;4993781;28;20213;-59
2022/01/01 00:49:55;;;;;;;59.45;34.47;;;;;;;;;;5008159;28;20304;-59
2022/01/01 00:52:20;;;;;;;54.05;31.67;;;;;;;;;;4989190;28;20548;-59
2022/01/01 00:54:46;;;;;;;62.45;36.83;;;;;;;;;;4988446;28;20213;-59
2022/01/01 00:57:11;;;;;;;56.75;33.88;;;;;;;;;;4988634;28;20296;-59
2022/01/01 00:59:36;;;;;;;58.08;35.05;;;;;;;;;;4974025;28;20206;-59
2022/01/01 01:02:02;;;;;;;62.58;34.53;;;;;;;;;;4973249;28;20256;-60
2022/01/01 01:04:27;;;;;;;61.30;35.42;;;;;;;;;;4988965;28;20296;-59
2022/01/01 01:06:52;;;;;;;62.17;35.83;;;;;;;;;;4989858;28;20296;-59
2022/01/01 01:09:18;;;;;;;62.63;36.75;;;;;;;;;;4992189;28;20305;-59
2022/01/01 01:11:46;;;;;;;59.15;35.67;;;;;;;;;;4993367;28;20220;-59
2022/01/01 01:14:19;;;;;;;69.25;36.97;;;;;;;;;;4992898;28;20213;-59
2022/01/01 01:16:45;;;;;;;61.35;38.00;;;;;;;;;;4992836;28;20209;-59
2022/01/01 01:19:10;;;;;;;71.70;40.90;;;;;;;;;;4992808;28;20264;-59
2022/01/01 01:21:35;;;;;;;69.55;39.40;;;;;;;;;;4989899;28;20280;-59
2022/01/01 01:24:01;;;;;;;69.30;40.38;;;;;;;;;;4972466;28;20661;-60
2022/01/01 01:26:28;;;;;;;69.75;40.53;;;;;;;;;;4973913;28;20217;-59
2022/01/01 01:28:54;;;;;;;65.82;38.47;;;;;;;;;;4973497;28;20210;-59
2022/01/01 01:31:20;;;;;;;66.75;38.97;;;;;;;;;;4971280;28;20268;-59
2022/01/01 01:33:45;;;;;;;67.25;37.92;;;;;;;;;;4973841;28;20214;-59
2022/01/01 01:36:10;;;;;;;62.85;35.90;;;;;;;;;;4988072;28;20300;-60
2022/01/01 01:38:36;;;;;;;62.85;36.42;;;;;;;;;;4972554;28;20341;-59
2022/01/01 01:41:03;;;;;;;60.10;34.70;;;;;;;;;;4973030;28;20301;-60
2022/01/01 01:43:28;;;;;;;64.22;35.03;;;;;;;;;;4988433;28;20494;-59
2022/01/01 01:45:53;;;;;;;64.15;38.92;;;;;;;;;;4972465;28;20252;-59
2022/01/01 01:48:19;;;;;;;62.92;36.47;;;;;;;;;;4972737;28;20233;-59
2022/01/01 01:50:44;;;;;;;61.85;36.28;;;;;;;;;;4973310;28;20217;-59
2022/01/01 01:53:10;;;;;;;64.93;36.35;;;;;;;;;;4981394;28;20217;-59
2022/01/01 01:55:35;;;;;;;63.03;35.92;;;;;;;;;;4992719;28;20213;-59
2022/01/01 01:58:00;;;;;;;63.45;38.08;;;;;;;;;;4991566;28;20723;-60
2022/01/01 02:03:10;;;;;;;63.40;37.42;;;;;;;;;;4992120;28;20587;-59
2022/01/01 02:05:35;;;;;;;60.35;36.60;;;;;;;;;;4986128;28;20226;-59
2022/01/01 02:08:01;;;;;;;60.75;36.80;;;;;;;;;;4972519;28;20623;-61
2022/01/01 02:10:26;;;;;;;61.15;35.78;;;;;;;;;;4971621;28;20216;-59
2022/01/01 02:12:54;;;;;;;61.17;36.55;;;;;;;;;;4986994;28;20217;-59
2022/01/01 02:15:41;;;;;;;54.42;33.38;;;;;;;;;;4972514;28;22902;-59
2022/01/01 02:18:06;;;;;;;58.80;33.47;;;;;;;;;;4972337;28;20214;-59
2022/01/01 02:20:31;;;;;;;54.97;31.92;;;;;;;;;;4972049;28;20209;-59
2022/01/01 02:23:00;;;;;;;56.40;31.15;;;;;;;;;;4986936;28;20221;-59
2022/01/01 02:25:25;;;;;;;54.95;31.15;;;;;;;;;;5006460;28;20325;-59
2022/01/01 02:27:51;;;;;;;49.53;29.45;;;;;;;;;;5006377;28;20736;-59
2022/01/01 02:30:16;;;;;;;54.30;30.77;;;;;;;;;;4991451;28;20217;-59
2022/01/01 02:32:41;;;;;;;60.90;34.38;;;;;;;;;;4992072;28;20224;-59
2022/01/01 02:35:07;;;;;;;77.75;37.15;;;;;;;;;;4990879;28;20322;-60
2022/01/01 02:37:34;;;;;;;85.50;42.45;;;;;;;;;;4991800;28;20248;-59
2022/01/01 02:39:59;;;;;;;50.58;29.67;;;;;;;;;;4990378;28;20217;-59
2022/01/01 02:42:25;;;;;;;57.30;31.83;;;;;;;;;;5005680;28;20201;-59
2022/01/01 02:44:51;;;;;;;60.42;36.35;;;;;;;;;;4991452;28;20238;-59
2022/01/01 02:47:16;;;;;;;63.65;33.17;;;;;;;;;;4990612;28;20205;-59
2022/01/01 02:49:41;;;;;;;57.03;30.10;;;;;;;;;;4991743;28;20283;-58
2022/01/01 02:52:07;;;;;;;59.90;33.22;;;;;;;;;;4988628;28;20252;-58
2022/01/01 02:54:32;;;;;;;57.97;32.90;;;;;;;;;;4986478;28;20232;-58
2022/01/01 02:56:57;;;;;;;55.28;31.48;;;;;;;;;;4973150;28;20213;-58
2022/01/01 02:59:23;;;;;;;51.05;31.05;;;;;;;;;;4980960;28;20222;-58
2022/01/01 03:01:48;;;;;;;55.78;30.30;;;;;;;;;;4971441;28;20210;-58
2022/01/01 03:04:13;;;;;;;55.05;31.42;;;;;;;;;;4971558;28;20309;-58
2022/01/01 03:06:38;;;;;;;59.13;30.88;;;;;;;;;;4986102;28;20304;-58
2022/01/01 03:09:04;;;;;;;56.17;31.00;;;;;;;;;;4990256;28;20216;-58
2022/01/01 03:11:29;;;;;;;54.70;30.25;;;;;;;;;;4991398;28;20259;-58
2022/01/01 03:13:54;;;;;;;54.78;29.67;;;;;;;;;;4991404;28;20680;-58
2022/01/01 03:16:20;;;;;;;58.40;29.60;;;;;;;;;;4990065;28;20224;-58
2022/01/01 03:18:45;;;;;;;58.78;31.55;;;;;;;;;;4991310;28;20205;-58
2022/01/01 03:21:10;;;;;;;55.80;29.38;;;;;;;;;;4990861;28;20643;-58
2022/01/01 03:23:35;;;;;;;51.20;28.33;;;;;;;;;;4986061;28;20272;-57
2022/01/01 03:26:01;;;;;;;58.88;29.20;;;;;;;;;;4971166;28;20226;-58
2022/01/01 03:28:26;;;;;;;59.95;30.08;;;;;;;;;;4971732;28;20700;-58
2022/01/01 03:30:52;;;;;;;50.88;28.95;;;;;;;;;;4985707;28;20213;-58
2022/01/01 03:33:17;;;;;;;58.03;29.73;;;;;;;;;;4971341;28;20226;-58
2022/01/01 03:35:42;;;;;;;57.22;29.80;;;;;;;;;;4971834;28;20297;-58
2022/01/01 03:38:07;;;;;;;54.67;30.52;;;;;;;;;;4985470;28;20214;-58
2022/01/01 03:40:33;;;;;;;55.67;29.58;;;;;;;;;;4971425;28;20275;-58
2022/01/01 03:42:58;;;;;;;50.45;29.30;;;;;;;;;;4971745;28;20221;-58
2022/01/01 03:45:23;;;;;;;53.28;30.23;;;;;;;;;;4970193;28;20221;-58
2022/01/01 03:47:49;;;;;;;52.15;28.38;;;;;;;;;;4971428;28;20225;-58
2022/01/01 03:50:14;;;;;;;57.75;31.77;;;;;;;;;;4971167;28;20226;-58
2022/01/01 03:52:45;;;;;;;59.25;32.08;;;;;;;;;;4972102;28;20221;-58
2022/01/01 03:55:11;;;;;;;53.42;30.60;;;;;;;;;;4971306;28;20223;-58
2022/01/01 03:57:36;;;;;;;57.90;32.22;;;;;;;;;;4970738;28;20216;-57
2022/01/01 04:00:02;;;;;;;56.92;32.17;;;;;;;;;;4971061;28;20673;-58
2022/01/01 04:02:27;;;;;;;57.90;33.28;;;;;;;;;;4971481;28;20309;-58
2022/01/01 04:04:53;;;;;;;54.25;32.72;;;;;;;;;;4970853;28;20349;-57
2022/01/01 04:07:18;;;;;;;64.13;34.38;;;;;;;;;;4990161;28;20213;-58
2022/01/01 04:09:43;;;;;;;58.97;33.22;;;;;;;;;;4991211;28;20212;-58
2022/01/01 04:12:08;;;;;;;60.28;35.40;;;;;;;;;;4993340;28;20231;-58
2022/01/01 04:14:34;;;;;;;60.63;32.00;;;;;;;;;;4994715;28;20243;-58
2022/01/01 04:16:59;;;;;;;61.45;35.10;;;;;;;;;;4994458;28;20227;-58
2022/01/01 04:19:34;;;;;;;59.65;34.72;;;;;;;;;;4993495;28;20271;-58
2022/01/01 04:22:00;;;;;;;59.30;34.38;;;;;;;;;;4987668;28;20230;-58
2022/01/01 04:24:25;;;;;;;54.63;33.55;;;;;;;;;;4974875;28;20252;-58
2022/01/01 04:26:50;;;;;;;60.53;33.97;;;;;;;;;;4972743;28;20213;-58
2022/01/01 04:29:16;;;;;;;58.42;33.92;;;;;;;;;;4974546;28;20245;-57
2022/01/01 04:31:41;;;;;;;54.90;31.08;;;;;;;;;;4975005;28;20236;-58
2022/01/01 04:34:07;;;;;;;53.60;31.70;;;;;;;;;;4973746;28;20221;-58
2022/01/01 04:36:32;;;;;;;58.60;32.03;;;;;;;;;;4974786;28;20215;-58
2022/01/01 04:38:57;;;;;;;54.63;30.73;;;;;;;;;;4974836;28;20214;-58
2022/01/01 04:41:22;;;;;;;54.47;30.13;;;;;;;;;;4973346;28;20209;-58
2022/01/01 04:43:48;;;;;;;52.63;29.52;;;;;;;;;;4974679;28;20218;-58
2022/01/01 04:46:13;;;;;;;51.10;29.27;;;;;;;;;;4974248;28;20405;-58
2022/01/01 04:48:40;;;;;;;49.22;28.20;;;;;;;;;;4973592;28;20226;-58
2022/01/01 04:51:07;;;;;;;51.35;28.77;;;;;;;;;;4974297;28;20261;-58
2022/01/01 04:53:33;;;;;;;46.55;27.38;;;;;;;;;;5002110;28;20307;-58
2022/01/01 04:56:02;;;;;;;51.17;26.80;;;;;;;;;;4993418;28;20217;-58
2022/01/01 04:58:28;;;;;;;44.70;25.75;;;;;;;;;;4993337;28;20218;-58
2022/01/01 05:00:53;;;;;;;49.30;26.63;;;;;;;;;;4993336;28;20209;-58
2022/01/01 05:03:18;;;;;;;48.38;25.88;;;;;;;;;;4993176;28;20586;-58
2022/01/01 05:05:43;;;;;;;43.58;23.77;;;;;;;;;;4987161;28;20222;-58
2022/01/01 05:08:09;;;;;;;45.60;23.88;;;;;;;;;;4973009;28;20708;-57
2022/01/01 05:10:35;;;;;;;47.58;23.40;;;;;;;;;;4974206;28;20357;-58
2022/01/01 05:13:00;;;;;;;45.55;24.27;;;;;;;;;;4973894;28;20214;-58
2022/01/01 05:15:25;;;;;;;45.38;22.40;;;;;;;;;;4973053;28;20264;-58
2022/01/01 05:17:50;;;;;;;43.58;21.05;;;;;;;;;;4973972;28;20224;-58
2022/01/01 05:20:16;;;;;;;43.13;20.67;;;;;;;;;;4973631;28;20221;-58
2022/01/01 05:22:41;;;;;;;47.83;21.48;;;;;;;;;;4985156;28;20738;-57
2022/01/01 05:25:06;;;;;;;39.08;20.00;;;;;;;;;;4992963;28;20237;-58
2022/01/01 05:27:34;;;;;;;35.78;17.80;;;;;;;;;;4993061;28;20205;-58
2022/01/01 05:30:00;;;;;;;34.10;16.55;;;;;;;;;;4992802;28;20336;-58
2022/01/01 05:32:26;;;;;;;31.05;16.30;;;;;;;;;;5007778;28;20271;-58
2022/01/01 05:34:51;;;;;;;37.08;17.15;;;;;;;;;;4993475;28;20221;-58
2022/01/01 05:37:16;;;;;;;36.83;17.08;;;;;;;;;;4992056;28;20220;-58
2022/01/01 05:39:41;;;;;;;28.60;15.27;;;;;;;;;;4993118;28;20258;-58
2022/01/01 05:42:07;;;;;;;29.08;15.10;;;;;;;;;;4992622;28;20240;-58
2022/01/01 05:44:33;;;;;;;28.27;12.63;;;;;;;;;;4992106;28;20685;-58
2022/01/01 05:46:58;;;;;;;25.90;12.52;;;;;;;;;;4993330;28;20576;-58
2022/01/01 05:49:23;;;;;;;24.02;12.48;;;;;;;;;;4992130;28;20218;-58
2022/01/01 05:51:48;;;;;;;26.75;11.73;;;;;;;;;;4992301;28;20213;-58
2022/01/01 05:54:14;;;;;;;22.35;11.30;;;;;;;;;;4972849;28;20560;-58
2022/01/01 05:56:39;;;;;;;26.02;11.90;;;;;;;;;;4973573;28;20233;-58
2022/01/01 05:59:04;;;;;;;20.67;9.82;;;;;;;;;;4986899;28;20276;-58
2022/01/01 06:01:30;;;;;;;25.45;10.98;;;;;;;;;;4973465;28;20210;-58
2022/01/01 06:03:55;;;;;;;25.15;10.57;;;;;;;;;;4971700;28;20218;-57
2022/01/01 06:06:20;;;;;;;27.30;10.02;;;;;;;;;;4983828;28;20213;-58
2022/01/01 06:08:45;;;;;;;23.83;9.57;;;;;;;;;;5007588;28;20215;-58
2022/01/01 06:11:11;;;;;;;22.75;9.95;;;;;;;;;;4991979;28;20288;-58
2022/01/01 06:13:36;;;;;;;23.40;9.82;;;;;;;;;;4991619;28;20205;-58
2022/01/01 06:16:02;;;;;;;21.90;9.98;;;;;;;;;;4992083;28;20253;-58
2022/01/01 06:18:27;;;;;;;21.27;9.85;;;;;;;;;;4991355;28;20587;-58
2022/01/01 06:20:53;;;;;;;23.63;10.20;;;;;;;;;;4992578;28;20205;-58
2022/01/01 06:23:18;;;;;;;19.58;9.85;;;;;;;;;;4974671;28;20249;-58
2022/01/01 06:25:43;;;;;;;21.08;10.70;;;;;;;;;;4987049;28;20225;-57
2022/01/01 06:28:09;;;;;;;24.30;10.23;;;;;;;;;;4972300;28;20245;-58
2022/01/01 06:30:34;;;;;;;26.92;9.90;;;;;;;;;;4972828;28;20264;-58
2022/01/01 06:33:00;;;;;;;20.77;9.95;;;;;;;;;;4971089;28;20747;-58
2022/01/01 06:35:25;;;;;;;21.42;9.63;;;;;;;;;;4972319;28;20210;-58
2022/01/01 06:37:51;;;;;;;22.23;9.77;;;;;;;;;;4971319;28;20674;-58
2022/01/01 06:40:16;;;;;;;24.25;10.10;;;;;;;;;;4971555;28;20228;-58
2022/01/01 06:42:41;;;;;;;21.15;9.45;;;;;;;;;;4972498;28;20320;-58
2022/01/01 06:45:07;;;;;;;22.02;9.57;;;;;;;;;;4971947;28;20280;-58
2022/01/01 06:47:32;;;;;;;17.83;9.75;;;;;;;;;;4971855;28;20214;-58
2022/01/01 06:49:57;;;;;;;21.27;10.27;;;;;;;;;;4972165;28;20221;-58
2022/01/01 06:52:23;;;;;;;22.13;9.55;;;;;;;;;;4975171;28;20259;-58
2022/01/01 06:54:48;;;;;;;20.27;9.48;;;;;;;;;;4990980;28;20599;-58
2022/01/01 06:57:13;;;;;;;19.48;9.32;;;;;;;;;;4991328;28;20219;-58
2022/01/01 06:59:38;;;;;;;20.23;9.32;;;;;;;;;;4991365;28;20228;-58
2022/01/01 07:02:04;;;;;;;18.33;8.90;;;;;;;;;;4990478;28;20224;-58
2022/01/01 07:04:29;;;;;;;21.92;9.98;;;;;;;;;;4991409;28;20502;-58
2022/01/01 07:06:54;;;;;;;18.40;9.07;;;;;;;;;;4990446;28;20222;-58
2022/01/01 07:09:19;;;;;;;20.23;9.07;;;;;;;;;;4970754;28;20659;-58
2022/01/01 07:11:45;;;;;;;20.92;9.30;;;;;;;;;;4970759;28;20213;-58
2022/01/01 07:14:11;;;;;;;24.23;9.05;;;;;;;;;;4971418;28;20218;-58
2022/01/01 07:16:36;;;;;;;17.25;9.15;;;;;;;;;;4971028;28;20643;-58
2022/01/01 07:19:01;;;;;;;21.55;9.45;;;;;;;;;;4971541;28;20305;-58
2022/01/01 07:21:26;;;;;;;22.97;10.23;;;;;;;;;;4973841;28;20433;-58
2022/01/01 07:23:52;;;;;;;20.40;9.18;;;;;;;;;;4990441;28;20566;-58
2022/01/01 07:26:17;;;;;;;18.67;9.18;;;;;;;;;;4990890;28;20312;-58
2022/01/01 07:28:42;;;;;;;19.67;10.13;;;;;;;;;;4989639;28;20428;-58
2022/01/01 07:31:08;;;;;;;19.40;8.68;;;;;;;;;;4990880;28;20216;-58
2022/01/01 07:33:33;;;;;;;17.63;8.07;;;;;;;;;;4990615;28;20240;-58
2022/01/01 07:35:58;;;;;;;17.83;8.80;;;;;;;;;;4985392;28;20270;-58
2022/01/01 07:38:24;;;;;;;14.65;8.15;;;;;;;;;;4990667;28;20212;-58
2022/01/01 07:40:49;;;;;;;20.70;8.18;;;;;;;;;;4991115;28;20212;-58
2022/01/01 07:43:15;;;;;;;19.20;8.20;;;;;;;;;;5004872;28;20308;-58
2022/01/01 07:45:40;;;;;;;14.38;7.22;;;;;;;;;;4990688;28;20219;-58
2022/01/01 07:48:06;;;;;;;15.70;7.88;;;;;;;;;;4990504;28;20371;-58
2022/01/01 07:50:31;;;;;;;16.15;7.88;;;;;;;;;;4988743;28;20213;-59
2022/01/01 07:52:56;;;;;;;17.30;8.38;;;;;;;;;;4989797;28;20680;-58
2022/01/01 07:55:22;;;;;;;19.85;7.82;;;;;;;;;;4990377;28;20219;-58
2022/01/01 07:57:47;;;;;;;17.80;7.97;;;;;;;;;;4981417;28;20244;-58
2022/01/01 08:00:13;;;;;;;16.95;7.32;;;;;;;;;;4977736;28;20220;-58
2022/01/01 08:02:40;;;;;;;20.45;7.43;;;;;;;;;;4979139;28;20305;-58
2022/01/01 08:05:05;;;;;;;18.35;7.20;;;;;;;;;;4971673;28;20225;-59
2022/01/01 08:07:30;;;;;;;18.63;6.90;;;;;;;;;;4990844;28;20347;-59
2022/01/01 08:09:56;;;;;;;17.15;6.88;;;;;;;;;;4990708;28;20267;-59
2022/01/01 08:12:21;;;;;;;20.23;7.57;;;;;;;;;;4989675;28;20233;-59
2022/01/01 08:14:46;;;;;;;19.77;7.47;;;;;;;;;;4990541;28;20417;-58
2022/01/01 08:17:12;;;;;;;13.38;6.57;;;;;;;;;;4990272;28;20772;-58
2022/01/01 08:19:38;;;;;;;16.40;7.28;;;;;;;;;;4987195;28;20204;-58
2022/01/01 08:22:04;;;;;;;16.10;6.82;;;;;;;;;;4981294;28;20212;-59
2022/01/01 08:24:29;;;;;;;15.73;6.47;;;;;;;;;;4976515;28;20267;-58
2022/01/01 08:26:55;;;;;;;16.45;6.50;;;;;;;;;;4983792;28;20217;-57
2022/01/01 08:29:20;;;;;;;15.32;6.57;;;;;;;;;;4990049;28;20221;-58
2022/01/01 08:31:46;;;;;;;13.80;6.50;;;;;;;;;;4990610;28;20220;-58
2022/01/01 08:34:11;;;;;;;18.85;6.05;;;;;;;;;;4989389;28;20221;-58
2022/01/01 08:36:36;;;;;;;14.35;6.07;;;;;;;;;;4990724;28;20205;-58
2022/01/01 08:39:05;;;;;;;14.55;6.05;;;;;;;;;;4989349;28;20255;-58
2022/01/01 08:41:30;;;;;;;14.32;5.60;;;;;;;;;;4990586;28;20209;-57
2022/01/01 08:43:56;;;;;;;16.80;6.07;;;;;;;;;;4990472;28;20244;-57
2022/01/01 08:46:21;;;;;;;13.55;5.78;;;;;;;;;;4987247;28;20210;-57
2022/01/01 08:48:46;;;;;;;13.35;5.90;;;;;;;;;;4987207;28;20264;-58
2022/01/01 08:51:13;;;;;;;14.95;5.82;;;;;;;;;;4990228;28;20696;-57
2022/01/01 08:53:39;;;;;;;13.63;5.72;;;;;;;;;;4987164;28;20296;-57
2022/01/01 08:56:07;;;;;;;19.35;5.57;;;;;;;;;;4990674;28;20304;-58
2022/01/01 08:58:33;;;;;;;14.05;6.05;;;;;;;;;;5008575;28;20213;-59
2022/01/01 09:00:59;;;;;;;17.33;6.30;;;;;;;;;;4993099;28;20213;-58
2022/01/01 09:03:24;;;;;;;13.82;5.82;;;;;;;;;;4993295;28;20291;-58
2022/01/01 09:05:49;;;;;;;16.80;6.00;;;;;;;;;;4969768;28;20229;-58
2022/01/01 09:08:14;;;;;;;16.80;6.15;;;;;;;;;;4972268;28;20300;-58
2022/01/01 09:10:40;;;;;;;14.82;5.72;;;;;;;;;;4985158;28;20220;-58
2022/01/01 09:13:05;;;;;;;13.60;5.20;;;;;;;;;;4992977;28;20247;-58
2022/01/01 09:15:30;;;;;;;14.57;5.50;;;;;;;;;;4992787;28;20212;-58
2022/01/01 09:17:56;;;;;;;15.95;5.70;;;;;;;;;;4980208;28;20232;-57
2022/01/01 09:20:21;;;;;;;14.30;5.38;;;;;;;;;;4983406;28;20209;-58
2022/01/01 09:22:46;;;;;;;14.52;5.50;;;;;;;;;;4979529;28;20216;-58
2022/01/01 09:25:12;;;;;;;11.63;5.00;;;;;;;;;;4973341;28;20237;-58
2022/01/01 09:27:38;;;;;;;13.18;5.60;;;;;;;;;;4972310;28;20209;-58
2022/01/01 09:30:03;;;;;;;13.77;5.28;;;;;;;;;;4972743;28;20214;-58
2022/01/01 09:32:29;;;;;;;13.10;5.32;;;;;;;;;;4973763;28;20656;-58
2022/01/01 09:34:55;;;;;;;13.48;5.30;;;;;;;;;;4973421;28;20221;-58
2022/01/01 09:37:20;;;;;;;15.32;5.60;;;;;;;;;;4972556;28;20210;-58
2022/01/01 09:39:46;;;;;;;16.95;5.88;;;;;;;;;;4980028;28;20303;-58
2022/01/01 09:42:12;;;;;;;14.93;5.13;;;;;;;;;;4978810;28;20264;-58
2022/01/01 09:44:37;;;;;;;13.07;4.80;;;;;;;;;;4978629;28;20225;-58
2022/01/01 09:47:02;;;;;;;12.02;4.80;;;;;;;;;;4979416;28;20457;-58
2022/01/01 09:49:28;;;;;;;14.25;5.47;;;;;;;;;;4985772;28;20233;-58
2022/01/01 09:51:53;;;;;;;11.90;5.28;;;;;;;;;;4987023;28;20209;-57
2022/01/01 09:54:18;;;;;;;15.10;5.78;;;;;;;;;;4986534;28;20673;-57
2022/01/01 09:56:43;;;;;;;15.57;5.63;;;;;;;;;;4985558;28;20296;-57
2022/01/01 09:59:10;;;;;;;12.38;5.10;;;;;;;;;;4986635;28;20224;-58
2022/01/01 10:01:36;;;;;;;15.27;5.93;;;;;;;;;;4981432;28;20209;-57
2022/01/01 10:04:01;;;;;;;14.80;5.95;;;;;;;;;;4976978;28;20435;-58
2022/01/01 10:06:29;;;;;;;13.25;5.70;;;;;;;;;;4977410;28;20212;-57
2022/01/01 10:08:55;;;;;;;14.13;5.47;;;;;;;;;;4975655;28;20412;-58
2022/01/01 10:11:20;;;;;;;13.40;5.25;;;;;;;;;;4984884;28;20228;-58
2022/01/01 10:13:45;;;;;;;12.60;5.10;;;;;;;;;;4986740;28;20568;-58
2022/01/01 10:16:11;;;;;;;12.68;4.90;;;;;;;;;;4983102;28;20260;-58
2022/01/01 10:18:37;;;;;;;13.50;5.95;;;;;;;;;;4984171;28;20344;-58
2022/01/01 10:21:08;;;;;;;13.15;5.13;;;;;;;;;;4986382;28;20804;-58
2022/01/01 10:23:34;;;;;;;12.50;5.28;;;;;;;;;;4983490;28;20704;-57
2022/01/01 10:28:53;;;;;;;15.80;5.13;;;;;;;;;;4969941;28;20216;-57
2022/01/01 10:31:18;;;;;;;9.70;4.70;;;;;;;;;;4975271;28;20208;-58
2022/01/01 10:33:44;;;;;;;15.13;5.35;;;;;;;;;;4984280;28;20223;-58
2022/01/01 10:36:10;;;;;;;15.18;6.03;;;;;;;;;;4985193;28;20268;-57
2022/01/01 10:38:35;;;;;;;17.05;6.25;;;;;;;;;;4985738;28;20219;-57
2022/01/01 10:41:05;;;;;;;13.25;5.63;;;;;;;;;;4985751;28;20209;-60
2022/01/01 10:43:34;;;;;;;14.93;5.50;;;;;;;;;;4984939;28;20213;-57
2022/01/01 10:45:59;;;;;;;14.43;5.60;;;;;;;;;;4979675;28;20567;-57
2022/01/01 10:48:39;;;;;;;13.85;5.60;;;;;;;;;;4981195;28;20232;-57
2022/01/01 10:51:04;;;;;;;13.85;5.60;;;;;;;;;;4977445;28;20260;-58
2022/01/01 10:53:30;;;;;;;13.98;5.43;;;;;;;;;;4977288;28;20676;-57
2022/01/01 10:55:56;;;;;;;12.60;4.97;;;;;;;;;;4983436;28;20217;-57
2022/01/01 10:58:22;;;;;;;11.50;4.72;;;;;;;;;;4967784;28;20205;-57
2022/01/01 11:00:48;;;;;;;11.65;4.75;;;;;;;;;;4985346;28;20590;-57
2022/01/01 11:03:15;;;;;;;12.85;4.90;;;;;;;;;;4983263;28;20746;-57
2022/01/01 11:05:41;;;;;;;13.23;5.40;;;;;;;;;;4984601;28;20330;-57
2022/01/01 11:08:07;;;;;;;10.02;4.50;;;;;;;;;;4983877;28;20229;-58
2022/01/01 11:10:32;;;;;;;11.65;4.68;;;;;;;;;;4982484;28;20240;-57
2022/01/01 11:12:59;;;;;;;11.15;4.80;;;;;;;;;;4976521;28;20224;-57
2022/01/01 11:15:24;;;;;;;11.18;5.53;;;;;;;;;;4976281;28;20221;-58
2022/01/01 11:17:49;;;;;;;12.40;5.40;;;;;;;;;;4980845;28;20747;-57
2022/01/01 11:20:15;;;;;;;12.43;5.03;;;;;;;;;;4984734;28;20217;-57
2022/01/01 11:22:42;;;;;;;11.15;4.95;;;;;;;;;;4985108;28;20212;-57
2022/01/01 11:25:07;;;;;;;8.38;4.90;;;;;;;;;;4984396;28;20236;-58
2022/01/01 11:27:32;;;;;;;8.63;4.55;;;;;;;;;;4983889;28;20209;-57
2022/01/01 11:29:59;;;;;;;11.55;4.80;;;;;;;;;;4999343;28;20271;-57
2022/01/01 11:32:34;;;;;;;10.25;4.97;;;;;;;;;;4984899;28;20267;-57
2022/01/01 11:34:59;;;;;;;10.70;5.05;;;;;;;;;;4983964;28;20213;-59
2022/01/01 11:37:24;;;;;;;12.10;4.85;;;;;;;;;;4984852;28;21092;-59
2022/01/01 11:39:53;;;;;;;12.48;5.30;;;;;;;;;;4984125;28;20701;-59
2022/01/01 11:42:19;;;;;;;9.90;5.38;;;;;;;;;;4984199;28;20311;-59
2022/01/01 11:44:50;;;;;;;14.27;4.95;;;;;;;;;;4984944;28;20308;-59
2022/01/01 11:47:16;;;;;;;12.55;5.93;;;;;;;;;;4984670;28;20252;-59
2022/01/01 11:49:41;;;;;;;10.63;5.10;;;;;;;;;;4984294;28;20228;-59
2022/01/01 11:52:07;;;;;;;10.75;4.93;;;;;;;;;;4984473;28;20213;-60
2022/01/01 11:54:33;;;;;;;9.32;4.50;;;;;;;;;;4985081;28;20279;-59
2022/01/01 11:56:59;;;;;;;12.55;4.90;;;;;;;;;;4984528;28;20221;-59
2022/01/01 11:59:37;;;;;;;12.40;4.80;;;;;;;;;;4984224;28;20739;-59
2022/01/01 12:02:04;;;;;;;11.27;4.80;;;;;;;;;;4984892;28;20784;-59
2022/01/01 12:04:35;;;;;;;13.23;5.65;;;;;;;;;;4981868;28;20233;-58
2022/01/01 12:07:21;;;;;;;11.77;5.25;;;;;;;;;;4984855;28;20206;-59
2022/01/01 12:09:48;;;;;;;10.63;4.85;;;;;;;;;;4979240;28;20300;-58
2022/01/01 12:12:13;;;;;;;12.45;4.60;;;;;;;;;;4979320;28;20223;-58
2022/01/01 12:14:38;;;;;;;9.32;4.25;;;;;;;;;;4977463;28;20213;-58
2022/01/01 12:17:04;;;;;;;10.35;4.53;;;;;;;;;;4978278;28;20247;-58
2022/01/01 12:19:29;;;;;;;12.82;5.00;;;;;;;;;;4979185;28;20217;-58
2022/01/01 12:22:05;;;;;;;9.73;4.30;;;;;;;;;;4979721;28;20201;-58
2022/01/01 12:24:35;;;;;;;11.40;4.88;;;;;;;;;;4981355;28;20692;-60
2022/01/01 12:27:01;;;;;;;10.63;5.15;;;;;;;;;;4983478;28;20715;-58
2022/01/01 12:29:26;;;;;;;12.50;5.07;;;;;;;;;;4980109;28;20233;-59
2022/01/01 12:31:55;;;;;;;12.98;5.20;;;;;;;;;;4984888;28;20688;-58
2022/01/01 12:34:22;;;;;;;10.40;5.20;;;;;;;;;;4982706;28;20308;-58
2022/01/01 12:36:49;;;;;;;9.43;5.47;;;;;;;;;;4980386;28;20648;-59
2022/01/01 12:39:15;;;;;;;8.98;4.80;;;;;;;;;;4982793;28;20267;-58
2022/01/01 12:41:41;;;;;;;9.63;4.47;;;;;;;;;;4979819;28;20653;-58
2022/01/01 12:44:07;;;;;;;12.05;4.95;;;;;;;;;;4977698;28;20707;-59
2022/01/01 12:46:33;;;;;;;10.10;5.07;;;;;;;;;;4983789;28;20239;-58
2022/01/01 12:48:59;;;;;;;11.18;4.80;;;;;;;;;;4977746;28;20295;-58
2022/01/01 12:51:25;;;;;;;10.60;4.90;;;;;;;;;;4978885;28;20212;-58
2022/01/01 12:53:54;;;;;;;8.45;4.30;;;;;;;;;;4978321;28;21004;-58
2022/01/01 12:56:19;;;;;;;8.65;4.07;;;;;;;;;;4978802;28;20232;-58
2022/01/01 12:58:45;;;;;;;8.70;4.05;;;;;;;;;;4978611;28;20205;-58
2022/01/01 13:01:18;;;;;;;8.18;4.30;;;;;;;;;;4977703;28;20560;-58
2022/01/01 13:03:45;;;;;;;9.82;4.30;;;;;;;;;;4979012;28;20217;-58
2022/01/01 13:06:11;;;;;;;8.23;4.28;;;;;;;;;;4978032;28;20240;-58
2022/01/01 13:08:40;;;;;;;8.82;4.03;;;;;;;;;;4978043;28;20221;-58
2022/01/01 13:11:06;;;;;;;10.35;4.10;;;;;;;;;;4976778;28;20209;-58
2022/01/01 13:13:31;;;;;;;9.57;4.53;;;;;;;;;;4976149;28;20233;-58
2022/01/01 13:15:56;;;;;;;11.27;4.78;;;;;;;;;;4978639;28;20217;-58
2022/01/01 13:18:26;;;;;;;11.73;4.80;;;;;;;;;;4978381;28;20205;-58
2022/01/01 13:20:52;;;;;;;9.63;4.68;;;;;;;;;;4977922;28;20213;-58
2022/01/01 13:23:17;;;;;;;10.18;4.00;;;;;;;;;;4978197;28;20221;-58
2022/01/01 13:25:44;;;;;;;8.85;4.68;;;;;;;;;;4978504;28;20232;-58
2022/01/01 13:28:09;;;;;;;9.15;4.60;;;;;;;;;;4977200;28;20209;-58
2022/01/01 13:30:34;;;;;;;7.65;4.07;;;;;;;;;;4976875;28;20778;-58
2022/01/01 13:33:01;;;;;;;10.07;4.40;;;;;;;;;;4978624;28;20655;-58
2022/01/01 13:35:26;;;;;;;8.27;4.15;;;;;;;;;;4977432;28;20221;-58
2022/01/01 13:37:51;;;;;;;7.53;3.78;;;;;;;;;;4977280;28;20232;-58
2022/01/01 13:40:16;;;;;;;11.02;4.18;;;;;;;;;;4984102;28;20228;-58
2022/01/01 13:42:42;;;;;;;8.93;4.30;;;;;;;;;;4984774;28;20213;-58
2022/01/01 13:45:09;;;;;;;10.45;4.60;;;;;;;;;;4983448;28;20237;-58
2022/01/01 13:47:34;;;;;;;8.30;4.22;;;;;;;;;;4981423;28;20209;-59
2022/01/01 13:50:00;;;;;;;8.13;3.97;;;;;;;;;;4963964;28;20236;-58
2022/01/01 13:52:27;;;;;;;10.20;4.25;;;;;;;;;;4961704;28;20241;-58
2022/01/01 13:54:53;;;;;;;9.32;4.10;;;;;;;;;;4964120;28;20812;-58
2022/01/01 13:57:18;;;;;;;9.35;4.05;;;;;;;;;;4963001;28;20308;-58
2022/01/01 13:59:44;;;;;;;9.60;4.18;;;;;;;;;;4978893;28;20213;-58
2022/01/01 14:02:10;;;;;;;10.07;4.47;;;;;;;;;;4963263;28;20312;-58
2022/01/01 14:04:36;;;;;;;12.32;4.53;;;;;;;;;;4963456;28;20272;-58
2022/01/01 14:07:02;;;;;;;8.40;4.05;;;;;;;;;;4976074;28;20572;-59
2022/01/01 14:09:27;;;;;;;9.35;4.28;;;;;;;;;;4963652;28;20213;-58
2022/01/01 14:11:54;;;;;;;7.93;3.50;;;;;;;;;;4963583;28;20755;-58
2022/01/01 14:14:23;;;;;;;10.35;4.47;;;;;;;;;;4978142;28;20221;-58
2022/01/01 14:16:49;;;;;;;7.45;3.80;;;;;;;;;;4977614;28;20317;-58
2022/01/01 14:19:14;;;;;;;8.73;4.13;;;;;;;;;;4963235;28;20752;-58
2022/01/01 14:21:39;;;;;;;9.40;4.43;;;;;;;;;;4967776;28;20751;-58
2022/01/01 14:24:05;;;;;;;8.55;3.67;;;;;;;;;;4981961;28;20679;-59